Terminal Aerodrome Forecast
Issued by NWS

Home | Current Version | Previous Version | Text Only | Print | Product List | Glossary On
Versions: 1 2 3 4 5 6 7 8 9 10 11 12 13 14
000
FTUS43 KICT 152300
TAFSLN
TAF
KSLN 152328Z 1600/1624 19015G24KT P6SM BKN250
     FM160200 17015G23KT P6SM SCT250
     FM161500 21024G33KT P6SM BKN250
     FM161900 27015G24KT P6SM BKN250
     FM162300 34016KT P6SM SCT250=

USA.gov is the U.S. government's official web portal to all federal, state and local government web resources and services.